sensor_id;sensor_type;location;lat;lon;timestamp;P1;durP1;ratioP1;P2;durP2;ratioP2
20179;SDS011;10249;48.900;9.090;2022-12-08T00:00:09;9.20;;;8.90;;
20179;SDS011;10249;48.900;9.090;2022-12-08T00:02:36;8.90;;;8.60;;
20179;SDS011;10249;48.900;9.090;2022-12-08T00:05:07;9.57;;;9.20;;
20179;SDS011;10249;48.900;9.090;2022-12-08T00:07:52;8.90;;;8.60;;
20179;SDS011;10249;48.900;9.090;2022-12-08T00:10:37;8.60;;;8.30;;
20179;SDS011;10249;48.900;9.090;2022-12-08T00:13:05;8.93;;;8.63;;
20179;SDS011;10249;48.900;9.090;2022-12-08T00:15:32;8.80;;;8.50;;
20179;SDS011;10249;48.900;9.090;2022-12-08T00:17:59;10.20;;;9.80;;
20179;SDS011;10249;48.900;9.090;2022-12-08T00:20:26;10.80;;;10.20;;
20179;SDS011;10249;48.900;9.090;2022-12-08T00:22:53;9.17;;;8.87;;
20179;SDS011;10249;48.900;9.090;2022-12-08T00:25:21;12.13;;;11.50;;
20179;SDS011;10249;48.900;9.090;2022-12-08T00:27:48;9.63;;;9.33;;
20179;SDS011;10249;48.900;9.090;2022-12-08T00:30:16;10.67;;;10.20;;
20179;SDS011;10249;48.900;9.090;2022-12-08T00:32:43;10.20;;;9.43;;
20179;SDS011;10249;48.900;9.090;2022-12-08T00:35:10;9.83;;;9.43;;
20179;SDS011;10249;48.900;9.090;2022-12-08T00:37:37;10.17;;;9.67;;
20179;SDS011;10249;48.900;9.090;2022-12-08T00:40:05;11.03;;;10.43;;
20179;SDS011;10249;48.900;9.090;2022-12-08T00:42:32;12.73;;;11.87;;
20179;SDS011;10249;48.900;9.090;2022-12-08T00:44:59;12.40;;;11.53;;
20179;SDS011;10249;48.900;9.090;2022-12-08T00:47:28;10.07;;;9.33;;
20179;SDS011;10249;48.900;9.090;2022-12-08T00:49:55;9.20;;;8.80;;
20179;SDS011;10249;48.900;9.090;2022-12-08T00:52:22;9.47;;;9.07;;
20179;SDS011;10249;48.900;9.090;2022-12-08T00:54:49;12.60;;;11.70;;
20179;SDS011;10249;48.900;9.090;2022-12-08T00:57:16;10.60;;;10.00;;
20179;SDS011;10249;48.900;9.090;2022-12-08T00:59:43;10.73;;;10.33;;
20179;SDS011;10249;48.900;9.090;2022-12-08T01:02:10;10.67;;;10.07;;
20179;SDS011;10249;48.900;9.090;2022-12-08T01:04:38;12.33;;;11.40;;
20179;SDS011;10249;48.900;9.090;2022-12-08T01:07:05;8.40;;;8.10;;
20179;SDS011;10249;48.900;9.090;2022-12-08T01:09:33;9.23;;;8.93;;
20179;SDS011;10249;48.900;9.090;2022-12-08T01:12:00;9.00;;;8.57;;
20179;SDS011;10249;48.900;9.090;2022-12-08T01:14:27;9.00;;;8.40;;
20179;SDS011;10249;48.900;9.090;2022-12-08T01:16:54;8.60;;;8.30;;
20179;SDS011;10249;48.900;9.090;2022-12-08T01:19:21;8.47;;;8.17;;
20179;SDS011;10249;48.900;9.090;2022-12-08T01:21:50;9.00;;;8.70;;
20179;SDS011;10249;48.900;9.090;2022-12-08T01:24:18;8.20;;;7.90;;
20179;SDS011;10249;48.900;9.090;2022-12-08T01:26:45;8.50;;;8.20;;
20179;SDS011;10249;48.900;9.090;2022-12-08T01:29:12;8.83;;;8.53;;
20179;SDS011;10249;48.900;9.090;2022-12-08T01:31:40;9.40;;;9.00;;
20179;SDS011;10249;48.900;9.090;2022-12-08T01:34:08;8.50;;;8.20;;
20179;SDS011;10249;48.900;9.090;2022-12-08T01:36:36;9.20;;;8.90;;
20179;SDS011;10249;48.900;9.090;2022-12-08T01:39:05;8.73;;;8.43;;
20179;SDS011;10249;48.900;9.090;2022-12-08T01:41:33;8.73;;;8.43;;
20179;SDS011;10249;48.900;9.090;2022-12-08T01:44:02;9.30;;;9.00;;
20179;SDS011;10249;48.900;9.090;2022-12-08T01:46:30;9.60;;;9.30;;
20179;SDS011;10249;48.900;9.090;2022-12-08T01:49:00;9.60;;;9.30;;
20179;SDS011;10249;48.900;9.090;2022-12-08T01:51:28;10.70;;;10.30;;
20179;SDS011;10249;48.900;9.090;2022-12-08T01:53:56;10.93;;;10.43;;
20179;SDS011;10249;48.900;9.090;2022-12-08T01:56:26;11.97;;;11.20;;
20179;SDS011;10249;48.900;9.090;2022-12-08T01:58:55;9.30;;;9.00;;
20179;SDS011;10249;48.900;9.090;2022-12-08T02:01:22;9.60;;;9.30;;
20179;SDS011;10249;48.900;9.090;2022-12-08T02:03:50;11.03;;;10.53;;
20179;SDS011;10249;48.900;9.090;2022-12-08T02:06:18;9.33;;;9.03;;
20179;SDS011;10249;48.900;9.090;2022-12-08T02:08:46;10.00;;;9.70;;
20179;SDS011;10249;48.900;9.090;2022-12-08T02:11:13;13.87;;;12.77;;
20179;SDS011;10249;48.900;9.090;2022-12-08T02:13:42;12.20;;;11.53;;
20179;SDS011;10249;48.900;9.090;2022-12-08T02:16:11;9.57;;;9.03;;
20179;SDS011;10249;48.900;9.090;2022-12-08T02:18:45;10.97;;;10.37;;
20179;SDS011;10249;48.900;9.090;2022-12-08T02:21:19;9.77;;;9.33;;
20179;SDS011;10249;48.900;9.090;2022-12-08T02:23:50;9.90;;;9.60;;
20179;SDS011;10249;48.900;9.090;2022-12-08T02:31:51;9.87;;;9.47;;
20179;SDS011;10249;48.900;9.090;2022-12-08T02:34:26;9.00;;;8.70;;
20179;SDS011;10249;48.900;9.090;2022-12-08T02:36:56;11.83;;;11.23;;
20179;SDS011;10249;48.900;9.090;2022-12-08T02:39:27;10.60;;;10.20;;
20179;SDS011;10249;48.900;9.090;2022-12-08T02:41:58;10.03;;;9.67;;
20179;SDS011;10249;48.900;9.090;2022-12-08T02:44:28;10.57;;;10.00;;
20179;SDS011;10249;48.900;9.090;2022-12-08T02:46:57;10.50;;;9.70;;
20179;SDS011;10249;48.900;9.090;2022-12-08T02:49:30;9.37;;;9.00;;
20179;SDS011;10249;48.900;9.090;2022-12-08T02:52:04;8.90;;;8.60;;
20179;SDS011;10249;48.900;9.090;2022-12-08T02:54:31;8.60;;;8.30;;
20179;SDS011;10249;48.900;9.090;2022-12-08T02:57:02;8.53;;;8.23;;
20179;SDS011;10249;48.900;9.090;2022-12-08T02:59:39;8.97;;;8.67;;
20179;SDS011;10249;48.900;9.090;2022-12-08T03:02:17;8.50;;;8.20;;
20179;SDS011;10249;48.900;9.090;2022-12-08T03:04:49;8.70;;;8.40;;
20179;SDS011;10249;48.900;9.090;2022-12-08T03:07:20;9.03;;;8.73;;
20179;SDS011;10249;48.900;9.090;2022-12-08T03:09:49;11.50;;;10.90;;
20179;SDS011;10249;48.900;9.090;2022-12-08T03:12:17;8.20;;;7.90;;
20179;SDS011;10249;48.900;9.090;2022-12-08T03:14:47;12.17;;;11.13;;
20179;SDS011;10249;48.900;9.090;2022-12-08T03:17:15;9.00;;;8.60;;
20179;SDS011;10249;48.900;9.090;2022-12-08T03:19:43;11.47;;;10.97;;
20179;SDS011;10249;48.900;9.090;2022-12-08T03:22:13;8.87;;;8.53;;
20179;SDS011;10249;48.900;9.090;2022-12-08T03:24:42;8.80;;;8.50;;
20179;SDS011;10249;48.900;9.090;2022-12-08T03:27:11;9.17;;;8.87;;
20179;SDS011;10249;48.900;9.090;2022-12-08T03:29:39;10.13;;;9.63;;
20179;SDS011;10249;48.900;9.090;2022-12-08T03:32:07;10.57;;;10.17;;
20179;SDS011;10249;48.900;9.090;2022-12-08T03:34:36;11.07;;;10.47;;
20179;SDS011;10249;48.900;9.090;2022-12-08T03:37:04;11.67;;;11.07;;
20179;SDS011;10249;48.900;9.090;2022-12-08T03:39:33;12.77;;;11.60;;
20179;SDS011;10249;48.900;9.090;2022-12-08T03:42:00;8.37;;;8.07;;
20179;SDS011;10249;48.900;9.090;2022-12-08T03:44:27;9.00;;;8.70;;
20179;SDS011;10249;48.900;9.090;2022-12-08T03:46:54;12.63;;;11.50;;
20179;SDS011;10249;48.900;9.090;2022-12-08T03:49:21;12.97;;;11.87;;
20179;SDS011;10249;48.900;9.090;2022-12-08T03:51:48;12.57;;;11.63;;
20179;SDS011;10249;48.900;9.090;2022-12-08T03:54:15;11.03;;;10.20;;
20179;SDS011;10249;48.900;9.090;2022-12-08T03:56:44;8.77;;;8.47;;
20179;SDS011;10249;48.900;9.090;2022-12-08T03:59:11;10.50;;;10.00;;
20179;SDS011;10249;48.900;9.090;2022-12-08T04:01:38;11.93;;;11.23;;
20179;SDS011;10249;48.900;9.090;2022-12-08T04:04:05;13.50;;;12.63;;
20179;SDS011;10249;48.900;9.090;2022-12-08T04:06:32;11.00;;;10.60;;
20179;SDS011;10249;48.900;9.090;2022-12-08T04:08:59;9.07;;;8.77;;
20179;SDS011;10249;48.900;9.090;2022-12-08T04:11:26;11.50;;;10.80;;
20179;SDS011;10249;48.900;9.090;2022-12-08T04:13:55;12.87;;;12.27;;
20179;SDS011;10249;48.900;9.090;2022-12-08T04:16:22;9.80;;;9.50;;
20179;SDS011;10249;48.900;9.090;2022-12-08T04:18:50;10.50;;;9.90;;
20179;SDS011;10249;48.900;9.090;2022-12-08T04:21:18;9.80;;;9.40;;
20179;SDS011;10249;48.900;9.090;2022-12-08T04:23:45;13.17;;;12.03;;
20179;SDS011;10249;48.900;9.090;2022-12-08T04:26:13;10.53;;;10.13;;
20179;SDS011;10249;48.900;9.090;2022-12-08T04:28:40;9.47;;;9.17;;
20179;SDS011;10249;48.900;9.090;2022-12-08T04:31:08;10.77;;;10.27;;
20179;SDS011;10249;48.900;9.090;2022-12-08T04:33:36;12.70;;;11.97;;
20179;SDS011;10249;48.900;9.090;2022-12-08T04:36:04;10.20;;;9.63;;
20179;SDS011;10249;48.900;9.090;2022-12-08T04:38:31;9.47;;;9.17;;
20179;SDS011;10249;48.900;9.090;2022-12-08T04:40:58;9.67;;;9.37;;
20179;SDS011;10249;48.900;9.090;2022-12-08T04:43:25;9.47;;;9.17;;
20179;SDS011;10249;48.900;9.090;2022-12-08T04:45:52;10.90;;;10.50;;
20179;SDS011;10249;48.900;9.090;2022-12-08T04:48:21;11.80;;;11.30;;
20179;SDS011;10249;48.900;9.090;2022-12-08T04:50:48;9.40;;;9.10;;
20179;SDS011;10249;48.900;9.090;2022-12-08T04:53:15;9.30;;;9.00;;
20179;SDS011;10249;48.900;9.090;2022-12-08T04:55:44;9.93;;;9.63;;
20179;SDS011;10249;48.900;9.090;2022-12-08T04:58:12;9.57;;;9.27;;
20179;SDS011;10249;48.900;9.090;2022-12-08T05:00:39;12.50;;;11.70;;
20179;SDS011;10249;48.900;9.090;2022-12-08T05:03:07;10.30;;;9.80;;
20179;SDS011;10249;48.900;9.090;2022-12-08T05:05:35;9.17;;;8.87;;
20179;SDS011;10249;48.900;9.090;2022-12-08T05:08:02;11.27;;;10.67;;
20179;SDS011;10249;48.900;9.090;2022-12-08T05:10:30;10.83;;;10.43;;
20179;SDS011;10249;48.900;9.090;2022-12-08T05:12:57;8.80;;;8.50;;
20179;SDS011;10249;48.900;9.090;2022-12-08T05:15:24;10.47;;;10.07;;
20179;SDS011;10249;48.900;9.090;2022-12-08T05:17:51;13.13;;;12.23;;
20179;SDS011;10249;48.900;9.090;2022-12-08T05:20:18;9.50;;;9.20;;
20179;SDS011;10249;48.900;9.090;2022-12-08T05:22:47;12.27;;;11.40;;
20179;SDS011;10249;48.900;9.090;2022-12-08T05:25:14;10.43;;;10.13;;
20179;SDS011;10249;48.900;9.090;2022-12-08T05:27:41;9.00;;;8.70;;
20179;SDS011;10249;48.900;9.090;2022-12-08T05:30:08;10.70;;;10.30;;
20179;SDS011;10249;48.900;9.090;2022-12-08T05:32:35;9.43;;;9.13;;
20179;SDS011;10249;48.900;9.090;2022-12-08T05:35:02;9.37;;;9.07;;
20179;SDS011;10249;48.900;9.090;2022-12-08T05:37:30;11.50;;;11.00;;
20179;SDS011;10249;48.900;9.090;2022-12-08T05:39:58;9.20;;;8.90;;
20179;SDS011;10249;48.900;9.090;2022-12-08T05:42:25;9.40;;;9.10;;
20179;SDS011;10249;48.900;9.090;2022-12-08T05:44:52;9.60;;;9.30;;
20179;SDS011;10249;48.900;9.090;2022-12-08T05:47:19;9.50;;;9.20;;
20179;SDS011;10249;48.900;9.090;2022-12-08T05:49:47;9.47;;;9.17;;
20179;SDS011;10249;48.900;9.090;2022-12-08T05:52:14;9.77;;;9.47;;
20179;SDS011;10249;48.900;9.090;2022-12-08T05:54:41;9.90;;;9.60;;
20179;SDS011;10249;48.900;9.090;2022-12-08T05:57:10;9.97;;;9.67;;
20179;SDS011;10249;48.900;9.090;2022-12-08T05:59:37;9.83;;;9.53;;
20179;SDS011;10249;48.900;9.090;2022-12-08T06:02:04;10.10;;;9.80;;
20179;SDS011;10249;48.900;9.090;2022-12-08T06:04:32;10.43;;;10.07;;
20179;SDS011;10249;48.900;9.090;2022-12-08T06:06:59;10.40;;;10.00;;
20179;SDS011;10249;48.900;9.090;2022-12-08T06:09:26;10.50;;;10.10;;
20179;SDS011;10249;48.900;9.090;2022-12-08T06:11:53;10.67;;;10.27;;
20179;SDS011;10249;48.900;9.090;2022-12-08T06:14:22;10.87;;;10.47;;
20179;SDS011;10249;48.900;9.090;2022-12-08T06:16:49;10.87;;;10.47;;
20179;SDS011;10249;48.900;9.090;2022-12-08T06:19:16;10.70;;;10.30;;
20179;SDS011;10249;48.900;9.090;2022-12-08T06:21:43;10.70;;;10.30;;
20179;SDS011;10249;48.900;9.090;2022-12-08T06:24:10;11.20;;;10.80;;
20179;SDS011;10249;48.900;9.090;2022-12-08T06:26:37;11.00;;;10.60;;
20179;SDS011;10249;48.900;9.090;2022-12-08T06:29:05;11.13;;;10.73;;
20179;SDS011;10249;48.900;9.090;2022-12-08T06:31:33;11.10;;;10.70;;
20179;SDS011;10249;48.900;9.090;2022-12-08T06:34:02;12.37;;;11.87;;
20179;SDS011;10249;48.900;9.090;2022-12-08T06:36:30;11.30;;;10.90;;
20179;SDS011;10249;48.900;9.090;2022-12-08T06:38:58;11.47;;;11.07;;
20179;SDS011;10249;48.900;9.090;2022-12-08T06:41:26;11.23;;;10.83;;
20179;SDS011;10249;48.900;9.090;2022-12-08T06:43:54;11.03;;;10.63;;
20179;SDS011;10249;48.900;9.090;2022-12-08T06:46:21;11.80;;;11.40;;
20179;SDS011;10249;48.900;9.090;2022-12-08T06:48:50;12.23;;;11.77;;
20179;SDS011;10249;48.900;9.090;2022-12-08T06:51:18;11.07;;;10.67;;
20179;SDS011;10249;48.900;9.090;2022-12-08T06:53:46;11.40;;;10.90;;
20179;SDS011;10249;48.900;9.090;2022-12-08T06:56:13;10.60;;;10.20;;
20179;SDS011;10249;48.900;9.090;2022-12-08T06:58:43;11.00;;;10.60;;
20179;SDS011;10249;48.900;9.090;2022-12-08T07:01:11;10.30;;;10.00;;
20179;SDS011;10249;48.900;9.090;2022-12-08T07:03:39;10.30;;;10.00;;
20179;SDS011;10249;48.900;9.090;2022-12-08T07:06:09;11.10;;;10.70;;
20179;SDS011;10249;48.900;9.090;2022-12-08T07:08:39;10.10;;;9.80;;
20179;SDS011;10249;48.900;9.090;2022-12-08T07:11:07;10.30;;;10.00;;
20179;SDS011;10249;48.900;9.090;2022-12-08T07:13:34;10.67;;;10.27;;
20179;SDS011;10249;48.900;9.090;2022-12-08T07:16:03;11.47;;;11.07;;
20179;SDS011;10249;48.900;9.090;2022-12-08T07:18:30;11.40;;;10.90;;
20179;SDS011;10249;48.900;9.090;2022-12-08T07:21:01;10.80;;;10.40;;
20179;SDS011;10249;48.900;9.090;2022-12-08T07:23:29;11.00;;;10.60;;
20179;SDS011;10249;48.900;9.090;2022-12-08T07:25:58;11.67;;;11.27;;
20179;SDS011;10249;48.900;9.090;2022-12-08T07:28:25;11.57;;;11.17;;
20179;SDS011;10249;48.900;9.090;2022-12-08T07:30:52;11.47;;;11.07;;
20179;SDS011;10249;48.900;9.090;2022-12-08T07:33:19;11.23;;;10.83;;
20179;SDS011;10249;48.900;9.090;2022-12-08T07:35:52;13.63;;;12.77;;
20179;SDS011;10249;48.900;9.090;2022-12-08T07:38:19;12.00;;;11.53;;
20179;SDS011;10249;48.900;9.090;2022-12-08T07:40:47;11.63;;;11.23;;
20179;SDS011;10249;48.900;9.090;2022-12-08T07:43:14;14.43;;;13.57;;
20179;SDS011;10249;48.900;9.090;2022-12-08T07:45:42;12.57;;;12.00;;
20179;SDS011;10249;48.900;9.090;2022-12-08T07:48:09;13.30;;;12.60;;
20179;SDS011;10249;48.900;9.090;2022-12-08T07:50:36;16.97;;;15.67;;
20179;SDS011;10249;48.900;9.090;2022-12-08T07:53:03;14.63;;;13.73;;
20179;SDS011;10249;48.900;9.090;2022-12-08T07:55:30;13.27;;;12.67;;
20179;SDS011;10249;48.900;9.090;2022-12-08T07:57:59;15.90;;;14.77;;
20179;SDS011;10249;48.900;9.090;2022-12-08T08:00:27;14.30;;;13.60;;
20179;SDS011;10249;48.900;9.090;2022-12-08T08:02:54;14.83;;;13.83;;
20179;SDS011;10249;48.900;9.090;2022-12-08T08:05:21;11.80;;;11.30;;
20179;SDS011;10249;48.900;9.090;2022-12-08T08:07:48;11.47;;;11.07;;
20179;SDS011;10249;48.900;9.090;2022-12-08T08:10:15;15.23;;;13.93;;
20179;SDS011;10249;48.900;9.090;2022-12-08T08:12:43;13.97;;;13.03;;
20179;SDS011;10249;48.900;9.090;2022-12-08T08:15:11;11.73;;;11.33;;
20179;SDS011;10249;48.900;9.090;2022-12-08T08:17:38;13.60;;;12.83;;
20179;SDS011;10249;48.900;9.090;2022-12-08T08:20:06;13.33;;;12.73;;
20179;SDS011;10249;48.900;9.090;2022-12-08T08:22:33;14.07;;;13.37;;
20179;SDS011;10249;48.900;9.090;2022-12-08T08:25:01;12.53;;;12.10;;
20179;SDS011;10249;48.900;9.090;2022-12-08T08:27:28;13.80;;;13.23;;
20179;SDS011;10249;48.900;9.090;2022-12-08T08:29:55;12.87;;;12.37;;
20179;SDS011;10249;48.900;9.090;2022-12-08T08:32:23;14.40;;;13.47;;
20179;SDS011;10249;48.900;9.090;2022-12-08T08:34:50;13.60;;;13.00;;
20179;SDS011;10249;48.900;9.090;2022-12-08T08:37:18;13.17;;;12.67;;
20179;SDS011;10249;48.900;9.090;2022-12-08T08:39:45;15.00;;;14.40;;
20179;SDS011;10249;48.900;9.090;2022-12-08T08:42:12;12.93;;;12.43;;
20179;SDS011;10249;48.900;9.090;2022-12-08T08:44:39;14.77;;;14.03;;
20179;SDS011;10249;48.900;9.090;2022-12-08T08:47:06;13.37;;;12.87;;
20179;SDS011;10249;48.900;9.090;2022-12-08T08:49:34;14.10;;;13.40;;
20179;SDS011;10249;48.900;9.090;2022-12-08T08:52:02;12.77;;;12.27;;
20179;SDS011;10249;48.900;9.090;2022-12-08T08:54:29;13.10;;;12.60;;
20179;SDS011;10249;48.900;9.090;2022-12-08T08:56:56;13.40;;;12.90;;
20179;SDS011;10249;48.900;9.090;2022-12-08T08:59:23;13.60;;;13.10;;
20179;SDS011;10249;48.900;9.090;2022-12-08T09:01:51;15.27;;;14.60;;
20179;SDS011;10249;48.900;9.090;2022-12-08T09:04:18;13.60;;;13.10;;
20179;SDS011;10249;48.900;9.090;2022-12-08T09:06:47;14.30;;;13.80;;
20179;SDS011;10249;48.900;9.090;2022-12-08T09:09:14;14.40;;;13.90;;
20179;SDS011;10249;48.900;9.090;2022-12-08T09:11:41;14.50;;;14.00;;
20179;SDS011;10249;48.900;9.090;2022-12-08T09:14:09;14.77;;;14.17;;
20179;SDS011;10249;48.900;9.090;2022-12-08T09:16:36;15.63;;;15.03;;
20179;SDS011;10249;48.900;9.090;2022-12-08T09:19:03;14.70;;;14.10;;
20179;SDS011;10249;48.900;9.090;2022-12-08T09:21:30;15.50;;;14.90;;
20179;SDS011;10249;48.900;9.090;2022-12-08T09:23:59;14.63;;;14.03;;
20179;SDS011;10249;48.900;9.090;2022-12-08T09:26:26;14.73;;;14.13;;
20179;SDS011;10249;48.900;9.090;2022-12-08T09:28:54;14.53;;;13.93;;
20179;SDS011;10249;48.900;9.090;2022-12-08T09:31:22;14.60;;;14.00;;
20179;SDS011;10249;48.900;9.090;2022-12-08T09:33:49;14.60;;;14.00;;
20179;SDS011;10249;48.900;9.090;2022-12-08T09:36:16;14.50;;;13.90;;
20179;SDS011;10249;48.900;9.090;2022-12-08T09:38:43;14.80;;;14.20;;
20179;SDS011;10249;48.900;9.090;2022-12-08T09:41:15;15.00;;;14.40;;
20179;SDS011;10249;48.900;9.090;2022-12-08T09:43:45;15.00;;;14.40;;
20179;SDS011;10249;48.900;9.090;2022-12-08T09:46:15;15.20;;;14.60;;
20179;SDS011;10249;48.900;9.090;2022-12-08T09:48:44;14.80;;;14.20;;
20179;SDS011;10249;48.900;9.090;2022-12-08T09:51:13;14.40;;;13.80;;
20179;SDS011;10249;48.900;9.090;2022-12-08T09:53:41;16.23;;;15.43;;
20179;SDS011;10249;48.900;9.090;2022-12-08T09:56:11;14.60;;;14.00;;
20179;SDS011;10249;48.900;9.090;2022-12-08T09:58:43;14.73;;;14.13;;
20179;SDS011;10249;48.900;9.090;2022-12-08T10:01:11;14.50;;;13.90;;
20179;SDS011;10249;48.900;9.090;2022-12-08T10:03:39;15.17;;;14.57;;
20179;SDS011;10249;48.900;9.090;2022-12-08T10:06:08;15.43;;;14.83;;
20179;SDS011;10249;48.900;9.090;2022-12-08T10:08:39;15.40;;;14.80;;
20179;SDS011;10249;48.900;9.090;2022-12-08T10:11:10;15.50;;;14.80;;
20179;SDS011;10249;48.900;9.090;2022-12-08T10:13:40;15.83;;;15.13;;
20179;SDS011;10249;48.900;9.090;2022-12-08T10:16:14;15.93;;;15.23;;
20179;SDS011;10249;48.900;9.090;2022-12-08T10:18:43;16.73;;;16.03;;
20179;SDS011;10249;48.900;9.090;2022-12-08T10:21:12;16.50;;;15.80;;
20179;SDS011;10249;48.900;9.090;2022-12-08T10:23:41;16.60;;;15.90;;
20179;SDS011;10249;48.900;9.090;2022-12-08T10:26:10;15.63;;;14.93;;
20179;SDS011;10249;48.900;9.090;2022-12-08T10:28:38;16.40;;;15.70;;
20179;SDS011;10249;48.900;9.090;2022-12-08T10:31:05;16.70;;;16.00;;
20179;SDS011;10249;48.900;9.090;2022-12-08T10:33:34;16.67;;;15.93;;
20179;SDS011;10249;48.900;9.090;2022-12-08T10:36:01;17.33;;;16.53;;
20179;SDS011;10249;48.900;9.090;2022-12-08T10:38:29;15.30;;;14.70;;
20179;SDS011;10249;48.900;9.090;2022-12-08T10:40:58;16.80;;;15.90;;
20179;SDS011;10249;48.900;9.090;2022-12-08T10:43:26;15.13;;;14.53;;
20179;SDS011;10249;48.900;9.090;2022-12-08T10:45:53;17.63;;;15.97;;
20179;SDS011;10249;48.900;9.090;2022-12-08T10:48:21;16.47;;;15.50;;
20179;SDS011;10249;48.900;9.090;2022-12-08T10:50:53;15.87;;;15.27;;
20179;SDS011;10249;48.900;9.090;2022-12-08T10:53:21;15.23;;;14.63;;
20179;SDS011;10249;48.900;9.090;2022-12-08T10:55:49;16.90;;;16.00;;
20179;SDS011;10249;48.900;9.090;2022-12-08T10:58:24;15.73;;;14.93;;
20179;SDS011;10249;48.900;9.090;2022-12-08T11:00:51;16.90;;;16.00;;
20179;SDS011;10249;48.900;9.090;2022-12-08T11:03:21;14.23;;;13.63;;
20179;SDS011;10249;48.900;9.090;2022-12-08T11:05:54;16.73;;;15.77;;
20179;SDS011;10249;48.900;9.090;2022-12-08T11:08:22;18.40;;;17.23;;
20179;SDS011;10249;48.900;9.090;2022-12-08T11:10:50;16.07;;;15.33;;
20179;SDS011;10249;48.900;9.090;2022-12-08T11:13:18;16.43;;;15.47;;
20179;SDS011;10249;48.900;9.090;2022-12-08T11:15:46;14.40;;;13.80;;
20179;SDS011;10249;48.900;9.090;2022-12-08T11:18:23;14.60;;;14.00;;
20179;SDS011;10249;48.900;9.090;2022-12-08T11:20:58;14.53;;;13.93;;
20179;SDS011;10249;48.900;9.090;2022-12-08T11:23:28;17.53;;;16.43;;
20179;SDS011;10249;48.900;9.090;2022-12-08T11:25:57;16.60;;;15.87;;
20179;SDS011;10249;48.900;9.090;2022-12-08T11:28:27;18.17;;;17.07;;
20179;SDS011;10249;48.900;9.090;2022-12-08T11:30:56;14.90;;;14.30;;
20179;SDS011;10249;48.900;9.090;2022-12-08T11:33:24;15.73;;;15.07;;
20179;SDS011;10249;48.900;9.090;2022-12-08T11:35:53;14.60;;;14.00;;
20179;SDS011;10249;48.900;9.090;2022-12-08T11:38:21;15.33;;;14.73;;
20179;SDS011;10249;48.900;9.090;2022-12-08T11:40:52;19.30;;;18.20;;
20179;SDS011;10249;48.900;9.090;2022-12-08T11:43:21;17.53;;;16.53;;
20179;SDS011;10249;48.900;9.090;2022-12-08T11:45:49;14.47;;;13.87;;
20179;SDS011;10249;48.900;9.090;2022-12-08T11:48:18;15.20;;;14.60;;
20179;SDS011;10249;48.900;9.090;2022-12-08T11:50:49;15.90;;;15.27;;
20179;SDS011;10249;48.900;9.090;2022-12-08T11:53:21;18.50;;;17.40;;
20179;SDS011;10249;48.900;9.090;2022-12-08T11:55:49;17.80;;;16.60;;
20179;SDS011;10249;48.900;9.090;2022-12-08T11:58:20;14.73;;;14.10;;
20179;SDS011;10249;48.900;9.090;2022-12-08T12:00:48;14.67;;;14.07;;
20179;SDS011;10249;48.900;9.090;2022-12-08T12:03:19;14.70;;;14.10;;
20179;SDS011;10249;48.900;9.090;2022-12-08T12:05:49;16.90;;;16.03;;
20179;SDS011;10249;48.900;9.090;2022-12-08T12:08:27;14.60;;;14.00;;
20179;SDS011;10249;48.900;9.090;2022-12-08T12:11:01;15.70;;;14.97;;
20179;SDS011;10249;48.900;9.090;2022-12-08T12:13:38;14.60;;;13.80;;
20179;SDS011;10249;48.900;9.090;2022-12-08T12:18:55;16.20;;;15.23;;
20179;SDS011;10249;48.900;9.090;2022-12-08T12:21:25;15.00;;;14.40;;
20179;SDS011;10249;48.900;9.090;2022-12-08T12:23:54;14.27;;;13.67;;
20179;SDS011;10249;48.900;9.090;2022-12-08T12:26:22;15.50;;;14.80;;
20179;SDS011;10249;48.900;9.090;2022-12-08T12:28:53;14.47;;;13.87;;
20179;SDS011;10249;48.900;9.090;2022-12-08T12:31:22;14.70;;;14.10;;
20179;SDS011;10249;48.900;9.090;2022-12-08T12:33:50;16.63;;;15.67;;
20179;SDS011;10249;48.900;9.090;2022-12-08T12:36:17;15.97;;;15.27;;
20179;SDS011;10249;48.900;9.090;2022-12-08T12:38:45;15.00;;;14.10;;
20179;SDS011;10249;48.900;9.090;2022-12-08T12:41:34;14.40;;;13.80;;
20179;SDS011;10249;48.900;9.090;2022-12-08T12:44:08;18.17;;;17.13;;
20179;SDS011;10249;48.900;9.090;2022-12-08T12:46:52;15.17;;;14.57;;
20179;SDS011;10249;48.900;9.090;2022-12-08T12:52:06;13.80;;;13.20;;
20179;SDS011;10249;48.900;9.090;2022-12-08T12:57:38;15.17;;;14.33;;
20179;SDS011;10249;48.900;9.090;2022-12-08T13:00:18;14.70;;;14.10;;
20179;SDS011;10249;48.900;9.090;2022-12-08T13:02:45;14.60;;;14.00;;
20179;SDS011;10249;48.900;9.090;2022-12-08T13:05:14;14.30;;;13.70;;
20179;SDS011;10249;48.900;9.090;2022-12-08T13:07:42;15.30;;;14.60;;
20179;SDS011;10249;48.900;9.090;2022-12-08T13:10:15;14.63;;;14.03;;
20179;SDS011;10249;48.900;9.090;2022-12-08T13:12:43;14.80;;;14.20;;
20179;SDS011;10249;48.900;9.090;2022-12-08T13:15:14;15.90;;;15.20;;
20179;SDS011;10249;48.900;9.090;2022-12-08T13:17:46;16.07;;;15.37;;
20179;SDS011;10249;48.900;9.090;2022-12-08T13:20:16;15.43;;;14.73;;
20179;SDS011;10249;48.900;9.090;2022-12-08T13:22:46;16.00;;;15.30;;
20179;SDS011;10249;48.900;9.090;2022-12-08T13:28:00;14.67;;;14.07;;
20179;SDS011;10249;48.900;9.090;2022-12-08T13:30:41;15.07;;;14.47;;
20179;SDS011;10249;48.900;9.090;2022-12-08T13:33:15;15.63;;;15.00;;
20179;SDS011;10249;48.900;9.090;2022-12-08T13:35:45;15.27;;;14.67;;
20179;SDS011;10249;48.900;9.090;2022-12-08T13:38:14;15.50;;;14.90;;
20179;SDS011;10249;48.900;9.090;2022-12-08T13:40:41;16.37;;;15.67;;
20179;SDS011;10249;48.900;9.090;2022-12-08T13:43:12;14.43;;;13.83;;
20179;SDS011;10249;48.900;9.090;2022-12-08T13:45:43;14.60;;;14.00;;
20179;SDS011;10249;48.900;9.090;2022-12-08T13:48:12;14.23;;;13.63;;
20179;SDS011;10249;48.900;9.090;2022-12-08T13:50:42;16.33;;;15.43;;
20179;SDS011;10249;48.900;9.090;2022-12-08T13:53:11;16.53;;;15.80;;
20179;SDS011;10249;48.900;9.090;2022-12-08T13:55:41;15.80;;;14.80;;
20179;SDS011;10249;48.900;9.090;2022-12-08T13:58:14;14.33;;;13.73;;
20179;SDS011;10249;48.900;9.090;2022-12-08T14:00:42;15.80;;;15.10;;
20179;SDS011;10249;48.900;9.090;2022-12-08T14:03:10;14.30;;;13.70;;
20179;SDS011;10249;48.900;9.090;2022-12-08T14:05:39;14.77;;;14.17;;
20179;SDS011;10249;48.900;9.090;2022-12-08T14:08:12;14.97;;;13.93;;
20179;SDS011;10249;48.900;9.090;2022-12-08T14:10:41;15.20;;;14.50;;
20179;SDS011;10249;48.900;9.090;2022-12-08T14:13:09;14.73;;;14.13;;
20179;SDS011;10249;48.900;9.090;2022-12-08T14:15:37;15.47;;;14.77;;
20179;SDS011;10249;48.900;9.090;2022-12-08T14:18:06;14.73;;;14.13;;
20179;SDS011;10249;48.900;9.090;2022-12-08T14:20:50;14.70;;;14.00;;
20179;SDS011;10249;48.900;9.090;2022-12-08T14:23:25;14.80;;;14.20;;
20179;SDS011;10249;48.900;9.090;2022-12-08T14:25:53;14.30;;;13.70;;
20179;SDS011;10249;48.900;9.090;2022-12-08T14:28:20;14.23;;;13.63;;
20179;SDS011;10249;48.900;9.090;2022-12-08T14:30:47;14.33;;;13.73;;
20179;SDS011;10249;48.900;9.090;2022-12-08T14:33:15;14.60;;;14.00;;
20179;SDS011;10249;48.900;9.090;2022-12-08T14:35:42;14.63;;;14.00;;
20179;SDS011;10249;48.900;9.090;2022-12-08T14:38:15;14.10;;;13.50;;
20179;SDS011;10249;48.900;9.090;2022-12-08T14:40:45;14.87;;;14.27;;
20179;SDS011;10249;48.900;9.090;2022-12-08T14:43:14;14.00;;;13.40;;
20179;SDS011;10249;48.900;9.090;2022-12-08T14:45:48;14.80;;;14.20;;
20179;SDS011;10249;48.900;9.090;2022-12-08T14:48:17;14.48;;;13.88;;
20179;SDS011;10249;48.900;9.090;2022-12-08T14:50:45;14.50;;;13.70;;
20179;SDS011;10249;48.900;9.090;2022-12-08T14:53:19;14.10;;;13.50;;